createdAt,value
2019-02-10T00:01:19.176Z,20.87
2019-02-10T00:03:47.258Z,22.47
2019-02-10T00:06:24.489Z,26.57
2019-02-10T00:08:47.203Z,28.20
2019-02-10T00:11:15.225Z,28.03
2019-02-10T00:13:43.682Z,26.50
2019-02-10T00:16:14.489Z,23.07
2019-02-10T00:18:42.471Z,24.83
2019-02-10T00:21:10.496Z,24.07
2019-02-10T00:23:38.577Z,23.77
2019-02-10T00:26:06.754Z,21.77
2019-02-10T00:28:34.728Z,30.60
2019-02-10T00:31:15.058Z,32.83
2019-02-10T00:33:43.474Z,31.87
2019-02-10T00:36:11.546Z,31.43
2019-02-10T00:38:39.555Z,33.77
2019-02-10T00:41:07.551Z,34.33
2019-02-10T00:43:36.012Z,32.93
2019-02-10T00:46:04.058Z,30.70
2019-02-10T00:48:32.058Z,31.73
2019-02-10T00:51:00.050Z,32.07
2019-02-10T00:53:27.967Z,30.67
2019-02-10T00:55:56.203Z,32.90
2019-02-10T00:58:24.234Z,32.97
2019-02-10T01:00:52.332Z,32.90
2019-02-10T01:03:20.542Z,32.93
2019-02-10T01:05:48.594Z,36.47
2019-02-10T01:08:16.573Z,36.43
2019-02-10T01:10:44.543Z,37.53
2019-02-10T01:13:12.619Z,40.50
2019-02-10T01:15:41.094Z,42.77
2019-02-10T01:18:09.182Z,41.33
2019-02-10T01:20:37.156Z,42.80
2019-02-10T01:23:05.323Z,45.27
2019-02-10T01:25:33.298Z,46.73
2019-02-10T01:28:01.261Z,46.83
2019-02-10T01:30:29.360Z,49.10
2019-02-10T01:32:57.291Z,48.07
2019-02-10T01:35:25.465Z,49.37
2019-02-10T01:37:53.690Z,50.53
2019-02-10T01:40:21.718Z,49.13
2019-02-10T01:42:49.702Z,49.57
2019-02-10T01:45:17.923Z,49.43
2019-02-10T01:47:45.908Z,48.20
2019-02-10T01:50:14.051Z,48.77
2019-02-10T01:52:42.192Z,50.00
2019-02-10T01:55:11.875Z,48.70
2019-02-10T01:57:40.170Z,49.57
2019-02-10T02:00:10.179Z,49.83
2019-02-10T02:02:38.131Z,49.00
2019-02-10T02:05:06.933Z,49.07
2019-02-10T02:07:34.891Z,50.63
2019-02-10T02:10:03.799Z,53.27
2019-02-10T02:12:31.758Z,51.97
2019-02-10T02:15:00.069Z,51.87
2019-02-10T02:17:28.924Z,51.00
2019-02-10T02:19:57.036Z,49.70
2019-02-10T02:22:25.539Z,48.83
2019-02-10T02:24:53.568Z,51.47
2019-02-10T02:27:21.686Z,49.03
2019-02-10T02:29:49.838Z,48.27
2019-02-10T02:32:17.773Z,50.23
2019-02-10T02:34:45.805Z,48.07
2019-02-10T02:37:13.862Z,48.67
2019-02-10T02:39:41.878Z,50.03
2019-02-10T02:42:09.999Z,50.53
2019-02-10T02:44:38.013Z,47.13
2019-02-10T02:47:06.531Z,46.40
2019-02-10T02:49:35.129Z,46.10
2019-02-10T02:52:03.170Z,48.17
2019-02-10T02:54:31.380Z,48.13
2019-02-10T02:56:59.712Z,47.30
2019-02-10T02:59:27.989Z,46.43
2019-02-10T03:01:55.920Z,46.37
2019-02-10T03:04:24.030Z,47.77
2019-02-10T03:06:53.539Z,48.63
2019-02-10T03:09:21.510Z,45.17
2019-02-10T03:11:50.940Z,45.87
2019-02-10T03:14:19.327Z,45.77
2019-02-10T03:16:47.367Z,46.17
2019-02-10T03:19:15.445Z,47.03
2019-02-10T03:21:43.989Z,47.77
2019-02-10T03:24:12.158Z,45.63
2019-02-10T03:26:40.207Z,45.33
2019-02-10T03:29:08.161Z,43.60
2019-02-10T03:31:36.123Z,44.47
2019-02-10T03:34:04.573Z,43.47
2019-02-10T03:36:32.697Z,43.50
2019-02-10T03:39:01.038Z,44.67
2019-02-10T03:41:29.028Z,43.07
2019-02-10T03:43:57.420Z,43.80
2019-02-10T03:46:25.588Z,41.53
2019-02-10T03:48:54.166Z,41.77
2019-02-10T03:51:22.488Z,40.27
2019-02-10T03:53:50.825Z,41.23
2019-02-10T03:56:19.266Z,41.27
2019-02-10T03:58:47.793Z,40.37
2019-02-10T04:01:16.325Z,40.13
2019-02-10T04:03:44.571Z,37.83
2019-02-10T04:06:12.544Z,38.97
2019-02-10T04:08:40.879Z,38.03
2019-02-10T04:11:09.287Z,38.63
2019-02-10T04:13:37.803Z,38.23
2019-02-10T04:16:05.865Z,36.27
2019-02-10T04:18:33.744Z,33.63
2019-02-10T04:21:01.816Z,31.73
2019-02-10T04:23:29.859Z,32.23
2019-02-10T04:25:57.831Z,32.77
2019-02-10T04:28:25.812Z,30.87
2019-02-10T04:30:53.816Z,29.60
2019-02-10T04:33:21.826Z,29.83
2019-02-10T04:35:49.896Z,30.47
2019-02-10T04:38:17.873Z,31.13
2019-02-10T04:40:45.775Z,30.60
2019-02-10T04:43:13.875Z,31.97
2019-02-10T04:45:42.203Z,33.50
2019-02-10T04:48:10.717Z,31.37
2019-02-10T04:50:38.804Z,32.13
2019-02-10T04:53:06.825Z,33.07
2019-02-10T04:55:34.875Z,32.63
2019-02-10T04:58:02.944Z,32.43
2019-02-10T05:00:30.903Z,34.83
2019-02-10T05:02:58.940Z,38.60
2019-02-10T05:05:26.958Z,37.67
2019-02-10T05:07:54.972Z,40.43
2019-02-10T05:10:23.108Z,39.23
2019-02-10T05:12:51.095Z,42.30
2019-02-10T05:15:19.111Z,41.93
2019-02-10T05:17:47.266Z,43.43
2019-02-10T05:20:15.425Z,44.23
2019-02-10T05:22:43.411Z,42.10
2019-02-10T05:25:11.557Z,44.97
2019-02-10T05:27:39.542Z,43.80
2019-02-10T05:30:07.618Z,45.03
2019-02-10T05:32:35.592Z,44.40
2019-02-10T05:35:03.746Z,44.67
2019-02-10T05:37:31.750Z,43.90
2019-02-10T05:39:59.715Z,42.30
2019-02-10T05:42:27.793Z,43.73
2019-02-10T05:44:55.931Z,43.83
2019-02-10T05:47:24.309Z,46.83
2019-02-10T05:49:52.309Z,47.20
2019-02-10T05:52:20.829Z,48.57
2019-02-10T05:54:48.808Z,47.40
2019-02-10T05:57:16.881Z,49.53
2019-02-10T05:59:44.859Z,48.37
2019-02-10T06:02:47.284Z,45.80
2019-02-10T06:05:18.142Z,47.00
2019-02-10T06:07:46.146Z,44.33
2019-02-10T06:10:14.497Z,45.03
2019-02-10T06:12:42.707Z,45.97
2019-02-10T06:15:10.739Z,45.87
2019-02-10T06:17:38.745Z,45.10
2019-02-10T06:20:07.338Z,45.40
2019-02-10T06:22:35.499Z,45.13
2019-02-10T06:25:03.711Z,46.67
2019-02-10T06:27:31.612Z,45.40
2019-02-10T06:29:59.625Z,42.87
2019-02-10T06:32:27.639Z,44.63
2019-02-10T06:34:55.580Z,42.83
2019-02-10T06:37:23.640Z,41.77
2019-02-10T06:39:51.666Z,40.40
2019-02-10T06:42:19.710Z,37.63
2019-02-10T06:44:47.628Z,38.80
2019-02-10T06:47:15.646Z,36.83
2019-02-10T06:49:44.171Z,34.57
2019-02-10T06:52:12.315Z,30.80
2019-02-10T06:55:08.260Z,27.13
2019-02-10T06:57:36.227Z,23.00
2019-02-10T07:00:26.490Z,21.93
2019-02-10T07:03:46.056Z,19.43
2019-02-10T07:06:14.541Z,19.57
2019-02-10T07:08:42.534Z,18.10
2019-02-10T07:11:19.299Z,18.20
2019-02-10T07:13:50.034Z,17.10
2019-02-10T07:16:55.906Z,13.07
2019-02-10T07:20:19.526Z,11.53
2019-02-10T07:22:59.374Z,10.90
2019-02-10T07:25:55.568Z,10.93
2019-02-10T07:29:06.221Z,12.57
2019-02-10T07:31:54.943Z,15.33
2019-02-10T07:35:06.284Z,15.70
2019-02-10T07:37:58.728Z,20.30
2019-02-10T07:41:00.846Z,33.33
2019-02-10T07:43:53.198Z,66.00
2019-02-10T07:46:52.287Z,60.70
2019-02-10T07:50:02.082Z,40.47
2019-02-10T07:52:44.095Z,24.23
2019-02-10T07:55:47.570Z,14.93
2019-02-10T07:58:51.777Z,11.90
2019-02-10T08:01:40.835Z,10.77
2019-02-10T08:04:53.742Z,10.27
2019-02-10T08:07:44.941Z,10.87
2019-02-10T08:10:39.490Z,10.00
2019-02-10T08:13:29.342Z,11.47
2019-02-10T08:16:17.980Z,12.20
2019-02-10T08:19:31.913Z,11.90
2019-02-10T08:22:46.556Z,10.27
2019-02-10T08:25:57.850Z,10.53
2019-02-10T08:29:03.132Z,9.37
2019-02-10T08:32:13.003Z,9.80
2019-02-10T08:34:57.971Z,13.13
2019-02-10T08:38:07.826Z,14.90
2019-02-10T08:41:19.408Z,19.93
2019-02-10T08:44:05.818Z,16.40
2019-02-10T08:46:58.205Z,14.10
2019-02-10T08:49:53.462Z,17.80
2019-02-10T08:52:51.534Z,18.30
2019-02-10T08:55:14.318Z,17.33
2019-02-10T08:57:42.289Z,14.37
2019-02-10T09:00:10.889Z,10.90
2019-02-10T09:02:38.916Z,8.50
2019-02-10T09:05:07.403Z,8.33
2019-02-10T09:07:35.389Z,7.90
2019-02-10T09:10:03.580Z,8.23
2019-02-10T09:12:31.610Z,10.47
2019-02-10T09:15:01.216Z,12.57
2019-02-10T09:17:29.353Z,13.73
2019-02-10T09:19:57.350Z,14.50
2019-02-10T09:22:25.406Z,13.97
2019-02-10T09:24:53.350Z,14.53
2019-02-10T09:27:21.477Z,15.27
2019-02-10T09:29:49.475Z,18.20
2019-02-10T09:32:17.615Z,19.40
2019-02-10T09:34:45.545Z,20.20
2019-02-10T09:37:13.575Z,22.30
2019-02-10T09:39:41.574Z,26.67
2019-02-10T09:42:09.542Z,27.27
2019-02-10T09:44:37.532Z,33.57
2019-02-10T09:47:05.663Z,42.50
2019-02-10T09:49:33.598Z,44.60
2019-02-10T09:52:01.605Z,42.17
2019-02-10T09:54:29.575Z,39.10
2019-02-10T09:56:57.651Z,34.70
2019-02-10T09:59:25.720Z,35.37
2019-02-10T10:01:53.918Z,32.10
2019-02-10T10:04:21.975Z,26.50
2019-02-10T10:06:49.973Z,29.57
2019-02-10T10:09:19.337Z,26.97
2019-02-10T10:11:48.387Z,23.03
2019-02-10T10:14:39.936Z,19.83
2019-02-10T10:17:07.810Z,19.67
2019-02-10T10:19:36.067Z,18.30
2019-02-10T10:22:04.279Z,22.80
2019-02-10T10:24:32.307Z,21.10
2019-02-10T10:27:00.254Z,17.20
2019-02-10T10:29:28.238Z,15.70
2019-02-10T10:31:56.184Z,17.37
2019-02-10T10:34:24.208Z,21.03
2019-02-10T10:36:53.230Z,13.53
2019-02-10T10:39:27.287Z,8.73
2019-02-10T10:41:52.018Z,6.37
2019-02-10T10:44:20.054Z,5.73
2019-02-10T10:46:48.122Z,5.50
2019-02-10T10:49:16.024Z,5.70
2019-02-10T10:51:44.081Z,10.13
2019-02-10T10:54:12.154Z,13.43
2019-02-10T10:56:40.278Z,13.43
2019-02-10T10:59:08.256Z,12.50
2019-02-10T11:01:36.474Z,10.13
2019-02-10T11:04:04.423Z,9.87
2019-02-10T11:06:33.978Z,12.70
2019-02-10T11:09:02.199Z,14.20
2019-02-10T11:11:30.728Z,13.33
2019-02-10T11:13:59.278Z,13.20
2019-02-10T11:16:27.667Z,12.30
2019-02-10T11:18:55.860Z,11.70
2019-02-10T11:21:24.170Z,13.73
2019-02-10T11:23:52.152Z,20.23
2019-02-10T11:26:20.259Z,51.07
2019-02-10T11:28:48.384Z,37.07
2019-02-10T11:31:16.336Z,28.97
2019-02-10T11:33:44.428Z,38.17
2019-02-10T11:36:12.523Z,42.70
2019-02-10T11:38:41.194Z,41.47
2019-02-10T11:41:09.443Z,25.93
2019-02-10T11:43:37.384Z,16.03
2019-02-10T11:46:05.580Z,10.67
2019-02-10T11:48:33.813Z,8.40
2019-02-10T11:51:02.815Z,7.50
2019-02-10T11:53:31.219Z,7.20
2019-02-10T11:55:59.520Z,8.30
2019-02-10T11:58:27.506Z,7.90
2019-02-10T12:00:55.949Z,8.70
2019-02-10T12:03:24.319Z,8.00
2019-02-10T12:05:52.765Z,8.90
2019-02-10T12:08:20.990Z,8.07
2019-02-10T12:10:49.310Z,8.13
2019-02-10T12:13:17.995Z,8.60
2019-02-10T12:15:47.772Z,8.57
2019-02-10T12:18:16.544Z,8.80
2019-02-10T12:20:45.064Z,9.00
2019-02-10T12:23:13.776Z,9.00
2019-02-10T12:25:42.466Z,9.40
2019-02-10T12:28:10.579Z,8.80
2019-02-10T12:30:38.724Z,8.50
2019-02-10T12:33:06.825Z,8.20
2019-02-10T12:35:34.835Z,7.97
2019-02-10T12:38:02.782Z,11.97
2019-02-10T12:40:30.876Z,29.37
2019-02-10T12:42:58.936Z,24.17
2019-02-10T12:45:27.079Z,20.70
2019-02-10T12:47:55.094Z,15.70
2019-02-10T12:50:23.535Z,10.73
2019-02-10T12:52:51.479Z,8.90
2019-02-10T12:55:19.818Z,7.73
2019-02-10T12:57:47.763Z,8.90
2019-02-10T13:00:16.219Z,11.07
2019-02-10T13:02:44.360Z,11.53
2019-02-10T13:05:12.513Z,12.27
2019-02-10T13:07:40.615Z,11.20
2019-02-10T13:10:10.004Z,10.00
2019-02-10T13:12:38.324Z,11.53
2019-02-10T13:15:39.103Z,12.00
2019-02-10T13:18:06.503Z,10.70
2019-02-10T13:20:34.952Z,11.10
2019-02-10T13:23:03.262Z,28.80
2019-02-10T13:25:31.294Z,44.80
2019-02-10T13:27:59.678Z,50.97
2019-02-10T13:30:27.916Z,43.80
2019-02-10T13:32:56.364Z,32.07
2019-02-10T13:35:25.401Z,22.10
2019-02-10T13:37:53.900Z,14.07
2019-02-10T13:40:23.014Z,12.07
2019-02-10T13:42:51.512Z,13.13
2019-02-10T13:45:20.606Z,16.87
2019-02-10T13:47:48.990Z,12.70
2019-02-10T13:50:17.606Z,8.50
2019-02-10T13:52:45.667Z,7.83
2019-02-10T13:55:14.515Z,6.30
2019-02-10T13:57:42.729Z,6.57
2019-02-10T14:00:16.027Z,6.93
2019-02-10T14:02:44.138Z,6.93
2019-02-10T14:05:12.235Z,7.60
2019-02-10T14:07:40.254Z,7.33
2019-02-10T14:10:08.695Z,7.50
2019-02-10T14:12:37.281Z,7.00
2019-02-10T14:15:43.740Z,6.60
2019-02-10T14:18:10.843Z,7.07
2019-02-10T14:20:39.050Z,9.63
2019-02-10T14:23:07.552Z,7.30
2019-02-10T14:25:35.700Z,6.77
2019-02-10T14:28:03.805Z,8.90
2019-02-10T14:30:32.197Z,6.17
2019-02-10T14:33:00.535Z,5.47
2019-02-10T14:35:28.622Z,5.30
2019-02-10T14:37:57.209Z,5.27
2019-02-10T14:40:33.257Z,5.00
2019-02-10T14:42:56.192Z,7.20
2019-02-10T14:45:24.927Z,5.93
2019-02-10T14:47:53.822Z,4.27
2019-02-10T14:50:23.134Z,4.13
2019-02-10T14:52:51.563Z,5.07
2019-02-10T14:55:20.780Z,5.00
2019-02-10T14:57:49.590Z,6.47
2019-02-10T15:00:18.339Z,6.10
2019-02-10T15:02:47.105Z,5.50
2019-02-10T15:05:15.991Z,6.80
2019-02-10T15:07:44.846Z,6.07
2019-02-10T15:10:13.877Z,5.80
2019-02-10T15:12:43.298Z,6.63
2019-02-10T15:15:49.692Z,5.73
2019-02-10T15:18:16.566Z,5.67
2019-02-10T15:20:45.371Z,4.70
2019-02-10T15:23:14.214Z,5.40
2019-02-10T15:25:43.010Z,5.00
2019-02-10T15:28:11.810Z,5.13
2019-02-10T15:30:40.507Z,5.80
2019-02-10T15:33:09.288Z,5.23
2019-02-10T15:35:37.684Z,5.37
2019-02-10T15:38:06.419Z,5.83
2019-02-10T15:40:35.200Z,5.57
2019-02-10T15:43:03.751Z,7.10
2019-02-10T15:45:32.540Z,5.30
2019-02-10T15:48:01.374Z,5.67
2019-02-10T15:50:30.299Z,5.70
2019-02-10T15:52:59.014Z,5.80
2019-02-10T15:55:28.225Z,5.13
2019-02-10T15:57:57.028Z,5.53
2019-02-10T16:00:26.957Z,5.73
2019-02-10T16:02:55.759Z,6.73
2019-02-10T16:05:24.846Z,6.93
2019-02-10T16:07:53.913Z,6.43
2019-02-10T16:10:23.226Z,6.93
2019-02-10T16:13:13.850Z,7.20
2019-02-10T16:16:13.445Z,6.77
2019-02-10T16:18:42.330Z,8.70
2019-02-10T16:21:11.937Z,6.63
2019-02-10T16:23:40.846Z,7.20
2019-02-10T16:26:12.537Z,6.00
2019-02-10T16:28:41.471Z,6.53
2019-02-10T16:31:10.372Z,6.57
2019-02-10T16:33:39.455Z,6.53
2019-02-10T16:36:08.320Z,8.10
2019-02-10T16:38:37.279Z,5.77
2019-02-10T16:41:07.329Z,7.17
2019-02-10T16:43:36.199Z,6.40
2019-02-10T16:46:05.012Z,9.00
2019-02-10T16:48:33.867Z,9.87
2019-02-10T16:51:02.920Z,7.47
2019-02-10T16:53:31.878Z,6.10
2019-02-10T16:56:00.982Z,6.37
2019-02-10T16:58:29.917Z,6.30
2019-02-10T17:00:58.838Z,6.73
2019-02-10T17:03:27.783Z,6.47
2019-02-10T17:05:56.809Z,6.17
2019-02-10T17:08:25.657Z,6.37
2019-02-10T17:10:54.684Z,6.40
2019-02-10T17:13:23.963Z,6.40
2019-02-10T17:16:24.206Z,6.20
2019-02-10T17:18:53.264Z,6.43
2019-02-10T17:21:25.163Z,7.27
2019-02-10T17:23:54.026Z,7.03
2019-02-10T17:26:22.926Z,6.83
2019-02-10T17:29:36.638Z,6.60
2019-02-10T17:32:03.970Z,6.13
2019-02-10T17:34:33.003Z,8.00
2019-02-10T17:37:02.015Z,8.10
2019-02-10T17:39:31.006Z,5.10
2019-02-10T17:42:00.003Z,5.53
2019-02-10T17:44:29.499Z,6.00
2019-02-10T17:47:02.994Z,5.10
2019-02-10T17:49:32.164Z,5.83
2019-02-10T17:52:01.046Z,5.90
2019-02-10T17:54:30.097Z,5.50
2019-02-10T17:56:59.177Z,5.00
2019-02-10T17:59:28.189Z,5.07
2019-02-10T18:01:57.235Z,5.23
2019-02-10T18:04:26.168Z,5.43
2019-02-10T18:06:57.652Z,4.70
2019-02-10T18:09:26.911Z,4.50
2019-02-10T18:11:56.206Z,4.83
2019-02-10T18:15:23.409Z,4.10
2019-02-10T18:18:22.016Z,4.50
2019-02-10T18:21:12.636Z,4.67
2019-02-10T18:23:59.093Z,3.80
2019-02-10T18:26:55.754Z,4.57
2019-02-10T18:29:46.403Z,4.53
2019-02-10T18:32:37.037Z,4.43
2019-02-10T18:35:26.888Z,4.60
2019-02-10T18:38:06.229Z,4.57
2019-02-10T18:41:00.094Z,4.03
2019-02-10T18:43:50.747Z,3.80
2019-02-10T18:46:37.228Z,3.90
2019-02-10T18:49:28.098Z,4.07
2019-02-10T18:52:15.264Z,4.23
2019-02-10T18:55:00.250Z,8.50
2019-02-10T18:57:43.912Z,5.53
2019-02-10T19:00:31.993Z,5.07
2019-02-10T19:03:06.902Z,4.40
2019-02-10T19:05:42.166Z,4.70
2019-02-10T19:08:20.250Z,4.00
2019-02-10T19:10:58.825Z,4.20
2019-02-10T19:13:55.604Z,4.13
2019-02-10T19:17:16.865Z,4.30
2019-02-10T19:19:53.739Z,4.07
2019-02-10T19:22:41.545Z,4.13
2019-02-10T19:25:45.162Z,3.37
2019-02-10T19:28:39.950Z,4.70
2019-02-10T19:31:26.330Z,4.30
2019-02-10T19:34:14.354Z,4.57
2019-02-10T19:36:54.843Z,4.07
2019-02-10T19:39:59.110Z,4.37
2019-02-10T19:42:39.224Z,4.30
2019-02-10T19:45:25.884Z,4.40
2019-02-10T19:48:14.527Z,4.10
2019-02-10T19:51:01.358Z,4.30
2019-02-10T19:53:42.528Z,4.37
2019-02-10T19:56:23.857Z,4.23
2019-02-10T19:59:10.514Z,4.10
2019-02-10T20:02:01.331Z,3.67
2019-02-10T20:04:48.881Z,4.40
2019-02-10T20:07:48.631Z,4.00
2019-02-10T20:10:34.864Z,4.17
2019-02-10T20:13:28.822Z,4.17
2019-02-10T20:16:49.271Z,3.70
2019-02-10T20:19:37.413Z,4.27
2019-02-10T20:22:18.850Z,5.00
2019-02-10T20:24:56.097Z,4.13
2019-02-10T20:27:42.583Z,4.37
2019-02-10T20:30:46.654Z,4.50
2019-02-10T20:33:50.068Z,3.90
2019-02-10T20:36:38.312Z,4.37
2019-02-10T20:39:19.064Z,4.17
2019-02-10T20:42:03.058Z,3.83
2019-02-10T20:44:49.605Z,4.97
2019-02-10T20:47:37.561Z,4.73
2019-02-10T20:50:32.486Z,4.63
2019-02-10T20:53:24.079Z,4.80
2019-02-10T20:56:04.648Z,4.27
2019-02-10T20:59:01.621Z,5.00
2019-02-10T21:02:01.641Z,5.10
2019-02-10T21:04:49.860Z,5.00
2019-02-10T21:07:34.706Z,5.10
2019-02-10T21:10:19.764Z,4.47
2019-02-10T21:13:10.238Z,4.87
2019-02-10T21:17:14.413Z,5.53
2019-02-10T21:20:02.162Z,5.50
2019-02-10T21:22:42.009Z,5.47
2019-02-10T21:25:42.315Z,5.60
2019-02-10T21:28:20.037Z,5.60
2019-02-10T21:31:09.516Z,6.00
2019-02-10T21:34:03.476Z,6.63
2019-02-10T21:37:09.551Z,5.80
2019-02-10T21:39:44.797Z,5.60
2019-02-10T21:42:28.705Z,5.10
2019-02-10T21:45:14.476Z,5.10
2019-02-10T21:47:48.504Z,5.93
2019-02-10T21:50:18.084Z,5.47
2019-02-10T21:52:47.903Z,4.67
2019-02-10T21:55:16.892Z,5.00
2019-02-10T21:57:45.015Z,5.13
2019-02-10T22:00:13.625Z,5.50
2019-02-10T22:02:41.932Z,5.03
2019-02-10T22:05:10.115Z,5.27
2019-02-10T22:07:38.265Z,5.80
2019-02-10T22:10:12.629Z,5.70
2019-02-10T22:12:43.022Z,6.10
2019-02-10T22:15:39.423Z,6.33
2019-02-10T22:18:07.850Z,6.10
2019-02-10T22:20:36.380Z,6.27
2019-02-10T22:23:05.274Z,6.37
2019-02-10T22:25:33.550Z,6.00
2019-02-10T22:28:02.461Z,5.53
2019-02-10T22:30:30.890Z,6.63
2019-02-10T22:32:59.844Z,6.73
2019-02-10T22:35:27.907Z,7.90
2019-02-10T22:37:56.308Z,7.60
2019-02-10T22:40:24.369Z,7.40
2019-02-10T22:42:52.424Z,7.80
2019-02-10T22:45:20.962Z,7.60
2019-02-10T22:47:48.989Z,7.97
2019-02-10T22:50:17.802Z,8.07
2019-02-10T22:52:45.781Z,7.90
2019-02-10T22:55:13.928Z,8.63
2019-02-10T22:57:41.896Z,8.33
2019-02-10T23:00:50.761Z,9.00
2019-02-10T23:03:19.039Z,8.97
2019-02-10T23:05:47.569Z,8.43
2019-02-10T23:08:15.609Z,8.43
2019-02-10T23:10:43.564Z,8.20
2019-02-10T23:13:11.622Z,8.57
2019-02-10T23:15:39.576Z,9.53
2019-02-10T23:18:07.610Z,8.83
2019-02-10T23:20:36.060Z,8.73
2019-02-10T23:23:04.143Z,9.13
2019-02-10T23:25:32.185Z,8.47
2019-02-10T23:28:00.334Z,8.30
2019-02-10T23:30:28.379Z,8.60
2019-02-10T23:32:56.292Z,9.07
2019-02-10T23:35:24.299Z,8.30
2019-02-10T23:37:52.428Z,8.20
2019-02-10T23:40:20.449Z,8.30
2019-02-10T23:42:48.523Z,9.00
2019-02-10T23:45:16.791Z,8.73
2019-02-10T23:47:44.831Z,8.77
2019-02-10T23:50:12.907Z,8.23
2019-02-10T23:52:40.902Z,7.63
2019-02-10T23:55:08.907Z,7.50
2019-02-10T23:57:36.966Z,8.47
